Time;durP1;ratioP1;P1;durP2;ratioP2;P2;SDS_P1;SDS_P2;PMS_P1;PMS_P2;Temp;Humidity;BMP_temperature;BMP_pressure;BME280_temperature;BME280_humidity;BME280_pressure;Samples;Min_cycle;Max_cycle;Signal;HPM_P1;HPM_P2
2022/05/14 00:01:13;;;;;;;;;2.67;2.67;;;;;16.90;48.69;102009.41;5069626;28;45428;-67
2022/05/14 00:03:40;;;;;;;;;4.00;3.00;;;;;16.86;48.53;102008.88;5079348;27;45444;-67
2022/05/14 00:06:08;;;;;;;;;6.67;5.33;;;;;16.80;49.04;102014.13;5068326;27;45230;-67
2022/05/14 00:08:34;;;;;;;;;6.00;4.00;;;;;16.80;49.13;102015.00;5078563;27;45337;-67
2022/05/14 00:13:44;;;;;;;;;3.33;3.33;;;;;16.83;48.59;102013.81;5075185;28;45761;-68
2022/05/14 00:16:11;;;;;;;;;5.00;4.00;;;;;16.80;49.36;102008.66;5068556;28;45253;-67
2022/05/14 00:18:37;;;;;;;;;3.00;2.67;;;;;16.72;49.48;102009.44;5073770;27;45408;-68
2022/05/14 00:21:04;;;;;;;;;9.00;5.00;;;;;16.65;49.63;102019.31;5067727;28;45341;-67
2022/05/14 00:23:30;;;;;;;;;3.67;3.67;;;;;16.63;50.06;102019.47;5071883;27;46278;-68
2022/05/14 00:25:55;;;;;;;;;4.67;4.67;;;;;16.57;50.08;102016.47;5066491;28;45250;-67
2022/05/14 00:28:21;;;;;;;;;3.00;3.00;;;;;16.41;50.93;102017.16;5080443;27;45602;-68
2022/05/14 00:30:47;;;;;;;;;5.67;5.67;;;;;16.32;50.85;102010.72;5065666;28;45534;-68
2022/05/14 00:33:12;;;;;;;;;4.67;4.00;;;;;16.23;51.65;102016.25;5078918;27;45592;-68
2022/05/14 00:35:39;;;;;;;;;6.00;6.00;;;;;16.13;51.93;102016.34;5063783;28;45574;-68
2022/05/14 00:38:05;;;;;;;;;7.00;6.00;;;;;16.13;51.49;102013.59;5077909;27;45431;-68
2022/05/14 00:40:45;;;;;;;;;5.33;5.00;;;;;16.15;51.49;102019.75;5063242;28;45628;-67
2022/05/14 00:43:11;;;;;;;;;8.33;6.00;;;;;16.21;51.05;102010.94;5074641;27;45637;-68
2022/05/14 00:45:47;;;;;;;;;5.67;5.67;;;;;16.14;51.11;102014.47;5063532;28;45573;-69
2022/05/14 00:48:13;;;;;;;;;6.33;6.33;;;;;16.11;51.40;102010.13;5082350;27;45326;-68
2022/05/14 00:50:52;;;;;;;;;8.00;8.00;;;;;16.13;51.58;102005.38;5075344;27;45396;-68
2022/05/14 00:53:36;;;;;;;;;9.33;6.00;;;;;16.12;51.60;102000.03;5084182;28;45308;-68
2022/05/14 00:56:06;;;;;;;;;5.00;5.00;;;;;15.99;51.95;102002.28;5073136;27;45245;-68
2022/05/14 00:59:00;;;;;;;;;5.00;5.00;;;;;16.01;51.19;102006.56;5082182;28;45488;-68
2022/05/14 01:01:26;;;;;;;;;7.00;6.67;;;;;15.87;52.35;101996.13;5073462;28;45575;-68
2022/05/14 01:03:51;;;;;;;;;9.00;6.00;;;;;15.67;52.86;101987.16;5081233;27;46314;-68
2022/05/14 01:06:20;;;;;;;;;5.00;5.00;;;;;15.64;53.60;101994.78;5072427;28;45478;-67
2022/05/14 01:08:47;;;;;;;;;7.00;7.00;;;;;15.56;53.67;101999.16;5080813;27;46271;-68
2022/05/14 01:11:14;;;;;;;;;7.67;6.67;;;;;15.53;53.66;101996.72;5072319;28;45227;-68
2022/05/14 01:13:40;;;;;;;;;7.00;7.00;;;;;15.56;53.44;101996.41;5078712;27;45365;-68
2022/05/14 01:16:06;;;;;;;;;7.33;7.00;;;;;15.53;53.88;101996.72;5070680;28;45210;-68
2022/05/14 01:18:34;;;;;;;;;13.33;9.67;;;;;15.43;54.24;101984.91;5077619;27;45458;-69
2022/05/14 01:21:01;;;;;;;;;11.33;8.00;;;;;15.36;54.57;101993.88;5068879;28;45350;-68
2022/05/14 01:26:27;;;;;;;;;9.00;9.00;;;;;15.27;54.42;101995.63;5075795;27;45434;-68
2022/05/14 01:26:27;;;;;;;;;9.00;7.67;;;;;15.19;54.90;101990.06;5072860;28;45302;-68
2022/05/14 01:28:53;;;;;;;;;9.00;7.00;;;;;15.15;55.40;101985.88;5078816;27;45389;-68
2022/05/14 01:31:19;;;;;;;;;6.00;6.00;;;;;15.06;55.18;101973.06;5072852;28;45356;-68
2022/05/14 01:33:44;;;;;;;;;8.00;6.33;;;;;15.11;55.23;101984.44;5077727;28;45478;-68
2022/05/14 01:36:10;;;;;;;;;8.00;8.00;;;;;15.06;55.33;101986.75;5070856;28;45939;-68
2022/05/14 01:38:35;;;;;;;;;8.33;7.67;;;;;15.03;55.55;101981.59;5076740;27;45645;-68
2022/05/14 01:41:01;;;;;;;;;10.67;8.00;;;;;14.96;56.13;101985.91;5068829;28;45292;-68
2022/05/14 01:43:28;;;;;;;;;14.00;10.33;;;;;14.90;56.14;101975.56;5083716;28;47393;-68
2022/05/14 01:45:53;;;;;;;;;11.00;9.00;;;;;14.91;56.04;101985.47;5084903;28;45461;-68
2022/05/14 01:48:19;;;;;;;;;10.33;9.33;;;;;14.88;56.24;101974.84;5074328;28;45330;-68
2022/05/14 01:50:44;;;;;;;;;5.67;5.67;;;;;14.89;56.25;101985.66;5067709;28;45317;-68
2022/05/14 01:53:10;;;;;;;;;6.67;6.00;;;;;14.82;56.45;101978.16;5082871;27;45309;-68
2022/05/14 01:55:36;;;;;;;;;8.67;6.67;;;;;14.72;56.61;101972.69;5073279;27;45328;-68
2022/05/14 01:58:36;;;;;;;;;6.33;6.33;;;;;14.69;56.91;101967.50;5080763;27;45271;-68
2022/05/14 02:00:47;;;;;;;;;8.00;7.33;;;;;14.66;57.13;101976.00;5070140;28;45310;-68
2022/05/14 02:03:12;;;;;;;;;6.33;6.33;;;;;14.60;57.18;101971.13;5094580;27;46876;-68
2022/05/14 02:05:38;;;;;;;;;8.00;6.00;;;;;14.60;57.42;101974.72;5065696;28;45464;-68
2022/05/14 02:08:03;;;;;;;;;7.00;5.00;;;;;14.61;57.08;101976.44;5092131;27;45395;-68
2022/05/14 02:10:28;;;;;;;;;11.67;7.33;;;;;14.65;57.06;101972.41;5065059;28;45427;-68
2022/05/14 02:12:54;;;;;;;;;7.00;7.00;;;;;14.67;57.02;101973.16;5078908;28;45756;-68
2022/05/14 02:15:19;;;;;;;;;8.00;6.00;;;;;14.66;57.31;101967.81;5069910;27;45300;-68
2022/05/14 02:17:45;;;;;;;;;5.33;5.33;;;;;14.62;56.87;101961.75;5076113;28;45419;-68
2022/05/14 02:20:10;;;;;;;;;8.33;7.00;;;;;14.60;56.73;101961.06;5070155;27;45239;-68
2022/05/14 02:22:38;;;;;;;;;8.00;6.67;;;;;14.54;57.44;101969.81;5074506;28;45467;-68
2022/05/14 02:25:04;;;;;;;;;11.00;9.33;;;;;14.52;57.64;101960.03;5070005;27;45278;-68
2022/05/14 02:27:29;;;;;;;;;10.33;7.67;;;;;14.50;57.74;101962.91;5073108;28;45420;-68
2022/05/14 02:29:55;;;;;;;;;7.67;6.33;;;;;14.44;57.76;101951.69;5064942;28;45384;-68
2022/05/14 02:32:24;;;;;;;;;6.00;6.00;;;;;14.45;58.19;101967.97;5079070;28;46203;-68
2022/05/14 02:34:51;;;;;;;;;7.00;7.00;;;;;14.44;58.06;101963.50;5068099;28;45368;-68
2022/05/14 02:37:17;;;;;;;;;6.33;6.33;;;;;14.44;58.13;101968.09;5078108;28;45461;-68
2022/05/14 02:39:43;;;;;;;;;9.00;8.33;;;;;14.40;58.22;101970.25;5083439;28;45324;-68
2022/05/14 02:42:08;;;;;;;;;7.00;7.00;;;;;14.39;58.29;101971.28;5080618;28;46333;-68
2022/05/14 02:44:34;;;;;;;;;9.00;7.00;;;;;14.40;58.38;101970.25;5069109;27;45341;-68
2022/05/14 02:46:59;;;;;;;;;7.33;7.00;;;;;14.33;58.48;101966.31;5072618;28;45610;-68
2022/05/14 02:49:25;;;;;;;;;8.33;7.67;;;;;14.35;58.40;101972.53;5069515;27;45368;-67
2022/05/14 02:51:50;;;;;;;;;5.67;5.67;;;;;14.23;58.89;101963.59;5074639;28;45380;-67
2022/05/14 02:54:15;;;;;;;;;8.67;7.00;;;;;14.27;59.24;101978.72;5082445;27;45324;-67
2022/05/14 02:56:41;;;;;;;;;6.33;6.33;;;;;14.24;59.32;101978.16;5072580;28;45335;-68
2022/05/14 02:59:09;;;;;;;;;14.00;9.00;;;;;14.28;59.07;101985.03;5082528;27;45520;-67
2022/05/14 03:01:37;;;;;;;;;9.00;9.00;;;;;14.25;59.00;101985.31;5072189;28;45590;-68
2022/05/14 03:04:04;;;;;;;;;12.33;8.67;;;;;14.23;59.04;101987.34;5071279;28;45471;-67
2022/05/14 03:06:30;;;;;;;;;9.33;7.00;;;;;14.23;58.90;101976.41;5071572;28;45279;-68
2022/05/14 03:08:56;;;;;;;;;8.67;7.00;;;;;14.23;59.46;101981.88;5077178;27;45725;-68
2022/05/14 03:11:22;;;;;;;;;10.00;8.33;;;;;14.22;59.32;101981.00;5070516;28;45604;-68
2022/05/14 03:13:48;;;;;;;;;12.33;10.00;;;;;14.22;59.40;101991.94;5082439;27;45451;-68
2022/05/14 03:16:14;;;;;;;;;10.67;10.67;;;;;14.25;59.45;101990.78;5068524;28;45401;-68
2022/05/14 03:18:41;;;;;;;;;10.33;10.00;;;;;14.22;59.90;101980.16;5073038;27;45444;-68
2022/05/14 03:21:06;;;;;;;;;10.67;9.00;;;;;14.22;59.78;101980.16;5067251;28;45773;-67
2022/05/14 03:23:32;;;;;;;;;11.75;10.25;;;;;14.25;59.46;101971.66;5072704;28;45334;-68
2022/05/14 03:25:57;;;;;;;;;11.67;11.67;;;;;14.22;59.20;101975.53;5067385;28;45466;-67
2022/05/14 03:28:22;;;;;;;;;11.25;11.25;;;;;14.16;59.36;101969.78;5097079;27;45706;-68
2022/05/14 03:30:47;;;;;;;;;13.50;11.00;;;;;14.17;59.15;101977.81;5068769;28;45390;-68
2022/05/14 03:33:13;;;;;;;;;12.00;11.00;;;;;14.17;59.12;101977.81;5080101;27;45239;-67
2022/05/14 03:35:38;;;;;;;;;14.75;14.00;;;;;14.18;59.06;101975.94;5062537;28;45288;-67
2022/05/14 03:38:04;;;;;;;;;15.25;14.25;;;;;14.18;59.06;101982.28;5095138;27;45654;-67
2022/05/14 03:40:29;;;;;;;;;19.50;17.25;;;;;14.05;59.40;101962.56;5064718;28;47207;-67
2022/05/14 03:42:54;;;;;;;;;21.00;18.50;;;;;14.08;59.71;101980.56;5077643;27;45388;-68
2022/05/14 03:45:20;;;;;;;;;23.00;17.50;;;;;14.04;59.25;101972.63;5063338;28;45316;-68
2022/05/14 03:47:46;;;;;;;;;18.25;15.00;;;;;14.02;59.40;101979.25;5080453;28;45250;-67
2022/05/14 03:50:11;;;;;;;;;23.25;18.50;;;;;14.00;59.49;101976.66;5061107;28;46706;-67
2022/05/14 03:52:37;;;;;;;;;16.50;15.75;;;;;14.01;59.80;101972.94;5076908;28;45411;-67
2022/05/14 03:55:03;;;;;;;;;17.25;17.25;;;;;14.00;59.52;101964.88;5075513;27;45294;-67
2022/05/14 03:57:28;;;;;;;;;19.25;19.25;;;;;13.95;59.47;101973.47;5076852;28;45333;-67
2022/05/14 03:59:53;;;;;;;;;19.50;18.00;;;;;13.98;59.89;101977.78;5072401;28;46974;-67
2022/05/14 04:02:21;;;;;;;;;18.75;17.00;;;;;13.91;60.06;101974.75;5077772;28;45308;-67
2022/05/14 04:04:46;;;;;;;;;15.50;13.50;;;;;13.88;60.12;101977.75;5064488;28;45327;-67
2022/05/14 04:07:11;;;;;;;;;14.75;13.00;;;;;13.87;60.26;101977.94;5075457;28;45278;-67
2022/05/14 04:09:37;;;;;;;;;15.50;13.25;;;;;13.93;59.64;101970.03;5071526;27;46318;-67
2022/05/14 04:12:02;;;;;;;;;15.00;12.50;;;;;13.98;59.54;101967.72;5074229;28;45196;-67
2022/05/14 04:14:28;;;;;;;;;18.50;14.75;;;;;14.02;59.54;101973.78;5070322;28;45442;-67
2022/05/14 04:16:53;;;;;;;;;15.25;12.75;;;;;13.93;60.18;101966.44;5072117;28;45281;-67
2022/05/14 04:19:21;;;;;;;;;21.00;14.00;;;;;13.85;60.32;101969.00;5068372;28;46237;-67
2022/05/14 04:21:47;;;;;;;;;14.00;12.67;;;;;13.90;59.48;101975.75;5071494;28;45492;-67
2022/05/14 04:24:13;;;;;;;;;17.00;15.50;;;;;13.90;60.06;101975.75;5077820;28;45465;-67
2022/05/14 04:26:38;;;;;;;;;15.00;13.67;;;;;13.88;59.95;101976.94;5084219;28;45573;-67
2022/05/14 04:29:04;;;;;;;;;10.67;10.33;;;;;13.90;59.93;101980.38;5077648;27;45525;-68
2022/05/14 04:31:29;;;;;;;;;18.25;14.50;;;;;13.96;59.53;101982.53;5071972;28;45354;-67
2022/05/14 04:33:54;;;;;;;;;16.00;15.00;;;;;13.94;60.00;101979.09;5077545;28;45460;-67
2022/05/14 04:36:20;;;;;;;;;22.00;13.25;;;;;13.96;59.74;101974.34;5069946;28;45461;-67
2022/05/14 04:38:45;;;;;;;;;16.25;15.00;;;;;14.00;59.44;101978.53;5076374;28;45579;-67
2022/05/14 04:41:11;;;;;;;;;16.50;15.00;;;;;14.02;59.44;101985.59;5070070;28;45386;-67
2022/05/14 04:43:36;;;;;;;;;22.25;19.25;;;;;14.03;59.50;101981.81;5077739;27;45341;-69
2022/05/14 04:46:06;;;;;;;;;14.25;12.50;;;;;14.10;59.58;101981.28;5068323;28;45233;-66
2022/05/14 04:48:31;;;;;;;;;22.50;15.50;;;;;14.12;59.40;101982.00;5085157;28;45586;-67
2022/05/14 04:50:57;;;;;;;;;18.25;15.75;;;;;14.26;58.74;101990.66;5073431;27;45396;-69
2022/05/14 04:53:22;;;;;;;;;17.50;17.25;;;;;14.29;59.09;101982.16;5082582;28;45361;-69
2022/05/14 04:55:49;;;;;;;;;15.00;15.00;;;;;14.39;58.86;101987.69;5072178;27;45690;-69
2022/05/14 04:58:15;;;;;;;;;21.00;15.00;;;;;14.52;58.61;101981.94;5082459;27;46395;-69
2022/05/14 05:00:41;;;;;;;;;19.75;19.25;;;;;14.54;58.46;101988.97;5071362;27;45289;-69
2022/05/14 05:03:22;;;;;;;;;16.50;15.00;;;;;14.67;58.00;101984.09;5084704;28;45387;-69
2022/05/14 05:06:06;;;;;;;;;16.00;15.25;;;;;14.79;57.89;101982.03;5070996;28;45328;-69
2022/05/14 05:08:33;;;;;;;;;16.75;15.25;;;;;14.91;57.11;101990.94;5077109;28;46211;-68
2022/05/14 05:10:58;;;;;;;;;14.00;14.00;;;;;14.92;56.74;101973.53;5068547;28;45626;-69
2022/05/14 05:13:27;;;;;;;;;14.25;14.25;;;;;15.22;56.19;101984.25;5079559;28;45454;-68
2022/05/14 05:15:52;;;;;;;;;5.75;4.25;;;;;15.73;55.25;101974.72;5068827;27;45432;-68
2022/05/14 05:18:19;;;;;;;;;15.33;13.33;;;;;16.00;54.58;101988.41;5076478;28;48371;-69
2022/05/14 05:20:48;;;;;;;;;12.67;11.33;;;;;15.94;54.53;101989.88;5080381;27;45450;-68
2022/05/14 05:23:16;;;;;;;;;11.33;11.33;;;;;15.90;53.76;101982.13;5076259;27;45340;-69
2022/05/14 05:25:42;;;;;;;;;15.50;14.00;;;;;15.98;53.32;101989.59;5066985;28;45576;-68
2022/05/14 05:28:07;;;;;;;;;14.00;13.00;;;;;15.89;54.67;101994.09;5082993;27;45576;-68
2022/05/14 05:30:33;;;;;;;;;14.00;14.00;;;;;15.85;54.37;101989.97;5065455;28;45259;-68
2022/05/14 05:32:58;;;;;;;;;17.75;16.25;;;;;15.90;54.24;101999.44;5080408;28;45277;-68
2022/05/14 05:35:24;;;;;;;;;12.67;12.67;;;;;15.93;53.93;102003.72;5064442;28;45322;-68
2022/05/14 05:37:49;;;;;;;;;15.75;14.25;;;;;16.00;53.93;101993.88;5079767;28;45496;-68
2022/05/14 05:40:16;;;;;;;;;12.50;12.50;;;;;16.18;53.13;102002.16;5063864;28;45990;-69
2022/05/14 05:42:42;;;;;;;;;12.33;12.33;;;;;16.30;52.67;101993.53;5082258;28;45333;-68
2022/05/14 05:45:09;;;;;;;;;15.75;10.50;;;;;16.45;52.39;101990.25;5065471;28;45372;-68
2022/05/14 05:47:34;;;;;;;;;13.00;13.00;;;;;16.55;52.58;101993.78;5079366;28;46417;-69
2022/05/14 05:49:59;;;;;;;;;15.25;12.50;;;;;16.59;52.77;101992.44;5075696;27;45452;-69
2022/05/14 05:52:25;;;;;;;;;13.00;13.00;;;;;16.88;51.81;101995.81;5079776;28;45305;-68
2022/05/14 05:57:38;;;;;;;;;12.00;10.33;;;;;17.05;50.47;102002.31;5077856;28;45326;-68
2022/05/14 06:00:09;;;;;;;;;7.33;6.67;;;;;17.21;49.63;102002.44;5064841;28;45671;-68
2022/05/14 06:02:34;;;;;;;;;12.00;9.00;;;;;17.29;49.18;101993.41;5076922;27;45292;-70
2022/05/14 06:04:59;;;;;;;;;10.00;8.00;;;;;17.26;49.29;101988.22;5074608;28;45250;-69
2022/05/14 06:07:25;;;;;;;;;7.00;6.00;;;;;17.29;48.97;102001.63;5076598;28;45579;-67
2022/05/14 06:09:50;;;;;;;;;8.67;5.00;;;;;17.37;48.79;102002.56;5073026;27;45426;-69
2022/05/14 06:12:15;;;;;;;;;5.67;4.00;;;;;17.44;48.23;102000.00;5075578;28;45442;-67
2022/05/14 06:14:43;;;;;;;;;6.67;5.00;;;;;17.48;48.30;102001.41;5072442;28;45544;-69
2022/05/14 06:17:08;;;;;;;;;5.00;5.00;;;;;17.59;48.10;102014.88;5074177;28;45535;-69
2022/05/14 06:19:34;;;;;;;;;4.00;4.00;;;;;17.63;47.39;102013.53;5070015;27;45383;-69
2022/05/14 06:21:59;;;;;;;;;6.33;6.00;;;;;17.63;47.21;102016.28;5072927;28;45533;-69
2022/05/14 06:24:24;;;;;;;;;8.33;5.33;;;;;17.69;47.06;102012.88;5069401;28;45227;-69
2022/05/14 06:26:50;;;;;;;;;5.00;4.00;;;;;17.70;47.42;102011.84;5073579;28;45409;-67
2022/05/14 06:29:15;;;;;;;;;4.67;4.00;;;;;17.70;46.75;102016.50;5074324;27;45278;-68
2022/05/14 06:31:40;;;;;;;;;7.00;4.00;;;;;17.70;46.98;102013.75;5071090;28;45400;-67
2022/05/14 06:34:05;;;;;;;;;4.00;4.00;;;;;17.74;46.86;102021.50;5074538;27;45297;-67
2022/05/14 06:36:33;;;;;;;;;6.00;6.00;;;;;17.88;46.62;102018.16;5068860;28;46076;-68
2022/05/14 06:38:59;;;;;;;;;8.67;5.33;;;;;18.03;46.40;102017.50;5072173;28;45361;-67
2022/05/14 06:41:24;;;;;;;;;6.33;5.00;;;;;18.22;46.50;102019.97;5071173;28;45750;-67
2022/05/14 06:43:50;;;;;;;;;3.00;3.00;;;;;18.29;44.70;102032.03;5074491;27;45313;-70
2022/05/14 06:46:15;;;;;;;;;5.00;4.00;;;;;18.29;44.13;102013.63;5068190;28;45399;-68
2022/05/14 06:48:40;;;;;;;;;6.00;2.67;;;;;18.35;43.91;102027.75;5083520;27;46407;-68
2022/05/14 06:51:10;;;;;;;;;4.33;3.00;;;;;18.40;44.64;102020.72;5069692;27;45484;-68
2022/05/14 06:53:40;;;;;;;;;6.67;4.00;;;;;18.36;44.58;102013.81;5081383;27;45267;-67
2022/05/14 06:56:07;;;;;;;;;2.67;2.67;;;;;18.37;44.35;102018.28;5069941;27;45393;-67
2022/05/14 06:58:37;;;;;;;;;2.67;2.67;;;;;18.33;44.37;102016.94;5082818;27;45269;-69
2022/05/14 07:01:03;;;;;;;;;3.00;3.00;;;;;18.38;44.13;102011.78;5069799;27;45342;-69
2022/05/14 07:08:59;;;;;;;;;2.00;2.00;;;;;18.45;44.14;102015.56;5074810;28;45308;-67
2022/05/14 07:11:25;;;;;;;;;2.00;2.00;;;;;18.67;44.02;102019.59;5070657;28;45546;-67
2022/05/14 07:13:51;;;;;;;;;3.00;3.00;;;;;18.62;43.41;102022.00;5073995;28;45423;-67
2022/05/14 07:16:17;;;;;;;;;4.00;4.00;;;;;18.76;43.47;102029.59;5067711;28;46953;-67
2022/05/14 07:18:43;;;;;;;;;3.00;3.00;;;;;18.92;43.28;102018.56;5071219;28;45403;-67
2022/05/14 07:21:08;;;;;;;;;4.67;4.67;;;;;19.07;43.14;102015.97;5068289;28;45487;-67
2022/05/14 07:23:34;;;;;;;;;2.67;2.67;;;;;19.03;42.82;102011.84;5079864;27;45337;-67
2022/05/14 07:26:05;;;;;;;;;3.33;3.33;;;;;19.05;42.51;102015.31;5065405;28;47548;-67
2022/05/14 07:28:30;;;;;;;;;3.00;3.00;;;;;19.15;43.06;102010.44;5074683;27;45272;-67
2022/05/14 07:30:56;;;;;;;;;2.67;2.00;;;;;19.22;42.48;102005.09;5064867;28;45427;-67
2022/05/14 07:33:22;;;;;;;;;4.00;4.00;;;;;19.29;42.61;101997.84;5076323;27;45477;-67
2022/05/14 07:35:47;;;;;;;;;4.00;4.00;;;;;19.36;42.79;102005.25;5064481;28;45316;-67
2022/05/14 07:38:13;;;;;;;;;5.67;3.00;;;;;19.40;42.46;102006.63;5073848;28;45258;-67
2022/05/14 07:40:39;;;;;;;;;5.33;4.00;;;;;19.45;41.84;101998.69;5064013;28;45432;-67
2022/05/14 07:43:18;;;;;;;;;4.00;4.00;;;;;19.48;42.47;101996.66;5082341;28;45381;-67
2022/05/14 07:45:56;;;;;;;;;2.33;2.33;;;;;19.64;41.75;102007.66;5070029;28;46888;-67
2022/05/14 07:48:27;;;;;;;;;4.00;3.00;;;;;19.71;41.25;101992.97;5070251;28;45292;-67
2022/05/14 07:50:52;;;;;;;;;4.00;4.00;;;;;19.83;41.91;101996.19;5064197;28;45388;-67
2022/05/14 07:53:19;;;;;;;;;3.00;3.00;;;;;19.87;40.74;101996.72;5080134;28;45416;-70
2022/05/14 07:55:45;;;;;;;;;4.00;4.00;;;;;19.85;40.92;101998.78;5068665;27;45632;-67
2022/05/14 07:58:11;;;;;;;;;8.00;7.00;;;;;19.67;41.18;101997.09;5077135;27;45332;-67
2022/05/14 08:00:37;;;;;;;;;5.00;5.00;;;;;19.52;41.13;101992.50;5067644;27;45349;-68
2022/05/14 08:03:03;;;;;;;;;7.33;5.00;;;;;19.61;41.88;101997.81;5076186;28;45451;-68
2022/05/14 08:05:29;;;;;;;;;3.00;3.00;;;;;19.91;41.23;101993.41;5067976;27;45326;-68
2022/05/14 08:07:54;;;;;;;;;3.00;3.00;;;;;20.33;40.53;101998.56;5080629;27;45369;-68
2022/05/14 08:10:20;;;;;;;;;3.33;2.67;;;;;20.49;40.02;101992.94;5069123;28;45316;-68
2022/05/14 08:12:50;;;;;;;;;4.00;4.00;;;;;20.35;40.00;101990.09;5074995;28;45258;-68
2022/05/14 08:15:16;;;;;;;;;4.67;4.67;;;;;20.34;40.33;101991.13;5066661;28;47281;-68
2022/05/14 08:17:43;;;;;;;;;5.00;4.00;;;;;20.41;39.24;101987.47;5072449;28;45345;-68
2022/05/14 08:20:09;;;;;;;;;4.33;3.00;;;;;20.07;40.21;101990.56;5067688;27;45296;-68
2022/05/14 08:25:18;;;;;;;;;5.00;5.00;;;;;20.40;39.90;101987.63;5062367;28;45421;-68
2022/05/14 08:27:47;;;;;;;;;4.50;4.50;;;;;20.74;40.05;101990.84;5079313;28;45318;-68
2022/05/14 08:30:13;;;;;;;;;7.33;5.00;;;;;20.78;39.10;101985.81;5064772;27;45353;-68
2022/05/14 08:32:38;;;;;;;;;4.00;4.00;;;;;21.15;38.93;101984.94;5078105;28;46058;-68
2022/05/14 08:35:04;;;;;;;;;9.67;6.00;;;;;21.25;38.43;101980.91;5062173;28;45310;-68
2022/05/14 08:37:29;;;;;;;;;4.67;4.67;;;;;21.48;38.20;101978.06;5075238;27;45459;-68
2022/05/14 08:39:55;;;;;;;;;7.00;4.00;;;;;21.31;38.92;101984.81;5080647;27;45386;-68
2022/05/14 08:42:20;;;;;;;;;3.67;2.67;;;;;21.52;38.34;101984.94;5073699;28;45555;-68
2022/05/14 08:44:46;;;;;;;;;7.33;4.67;;;;;21.53;38.27;101980.25;5063482;28;47696;-68
2022/05/14 08:47:30;;;;;;;;;3.00;3.00;;;;;21.79;37.48;101975.09;5072462;28;45393;-68
2022/05/14 08:49:56;;;;;;;;;4.00;4.00;;;;;21.83;37.87;101978.34;5075699;27;45313;-68
2022/05/14 08:52:24;;;;;;;;;7.00;4.00;;;;;22.12;36.72;101970.03;5075642;28;45264;-68
2022/05/14 08:54:53;;;;;;;;;3.67;3.67;;;;;22.23;37.13;101950.13;5073844;27;46409;-68
2022/05/14 08:57:43;;;;;;;;;2.00;2.00;;;;;22.60;36.84;101971.19;5075273;28;45431;-68
2022/05/14 09:00:10;;;;;;;;;4.67;4.00;;;;;22.81;36.56;101970.34;5072462;27;45306;-68
2022/05/14 09:02:46;;;;;;;;;3.00;3.00;;;;;22.68;36.00;101968.28;5079039;28;45580;-68
2022/05/14 09:05:11;;;;;;;;;3.00;3.00;;;;;22.85;36.39;101967.00;5070109;28;45579;-68
2022/05/14 09:07:37;;;;;;;;;3.67;3.33;;;;;22.27;36.55;101957.00;5073583;28;45559;-68
2022/05/14 09:10:08;;;;;;;;;6.00;6.00;;;;;22.23;36.80;101968.66;5072166;28;45408;-68
2022/05/14 09:12:36;;;;;;;;;5.67;5.67;;;;;22.25;37.27;101964.66;5075743;28;45172;-68
2022/05/14 09:15:10;;;;;;;;;6.00;4.67;;;;;22.08;37.36;101960.38;5071556;28;46689;-68
2022/05/14 09:17:36;;;;;;;;;7.00;6.00;;;;;22.04;37.03;101961.84;5073921;27;45530;-68
2022/05/14 09:20:01;;;;;;;;;6.33;5.67;;;;;22.23;37.65;101966.75;5070081;27;45259;-68
2022/05/14 09:22:52;;;;;;;;;5.67;5.67;;;;;22.13;37.33;101964.31;5080014;28;45749;-69
2022/05/14 09:25:24;;;;;;;;;6.00;5.00;;;;;22.78;36.92;101954.16;5083262;27;47747;-69
2022/05/14 09:28:03;;;;;;;;;6.00;4.00;;;;;22.92;35.59;101955.13;5082705;27;45536;-68
2022/05/14 09:30:37;;;;;;;;;3.00;3.00;;;;;22.81;35.82;101953.72;5065538;28;45266;-68
2022/05/14 09:33:05;;;;;;;;;4.00;4.00;;;;;23.39;35.54;101949.69;5071025;28;45352;-68
2022/05/14 09:35:33;;;;;;;;;5.00;4.00;;;;;23.82;33.78;101941.22;5061812;28;46851;-69
2022/05/14 09:38:12;;;;;;;;;3.00;3.00;;;;;23.60;34.27;101954.31;5076917;28;45540;-69
2022/05/14 09:40:38;;;;;;;;;5.00;5.00;;;;;23.92;32.28;101950.88;5063852;28;45513;-69
2022/05/14 09:43:16;;;;;;;;;7.00;7.00;;;;;23.89;33.72;101947.69;5084262;27;45650;-67
2022/05/14 09:45:55;;;;;;;;;5.00;5.00;;;;;24.23;33.56;101939.28;5073518;28;45451;-68
2022/05/14 09:48:22;;;;;;;;;7.33;5.00;;;;;24.91;32.01;101936.41;5081812;27;46068;-68
2022/05/14 09:50:54;;;;;;;;;6.00;4.33;;;;;25.35;31.79;101925.41;5071947;27;45234;-68
2022/05/14 09:53:46;;;;;;;;;2.00;2.00;;;;;25.50;30.44;101925.16;5083926;28;45501;-68
2022/05/14 09:56:48;;;;;;;;;4.00;4.00;;;;;25.10;31.93;101930.81;5079592;27;47970;-68
2022/05/14 09:59:29;;;;;;;;;6.33;5.33;;;;;25.57;31.48;101907.38;5074353;27;45205;-68
2022/05/14 10:02:01;;;;;;;;;6.00;4.67;;;;;26.08;29.55;101914.06;5075082;28;45352;-68
2022/05/14 10:04:45;;;;;;;;;4.33;3.00;;;;;26.41;30.22;101906.38;5073866;27;45143;-69
2022/05/14 10:07:17;;;;;;;;;4.00;2.33;;;;;26.55;28.17;101891.25;5074438;28;46496;-68
2022/05/14 10:10:04;;;;;;;;;2.00;2.00;;;;;26.83;28.92;101899.19;5080054;27;45179;-68
2022/05/14 10:12:37;;;;;;;;;3.00;3.00;;;;;27.08;26.91;101914.00;5078702;28;45446;-68
2022/05/14 10:15:14;;;;;;;;;4.33;3.67;;;;;26.88;28.21;101910.53;5071534;28;45221;-68
2022/05/14 10:17:44;;;;;;;;;3.00;3.00;;;;;27.03;28.12;101910.22;5079626;28;47818;-68
2022/05/14 10:20:22;;;;;;;;;3.00;3.00;;;;;27.22;27.43;101903.56;5068639;27;45448;-68
2022/05/14 10:29:00;;;;;;;;;2.33;2.33;;;;;26.70;28.32;101899.28;5076527;27;45714;-68
2022/05/14 10:31:44;;;;;;;;;4.33;4.00;;;;;27.08;27.34;101902.84;5070114;28;45243;-68
2022/05/14 10:34:21;;;;;;;;;4.00;4.00;;;;;27.16;27.45;101898.06;5073790;28;45491;-68
2022/05/14 10:36:57;;;;;;;;;4.00;3.67;;;;;27.63;27.46;101896.47;5070582;28;45358;-68
2022/05/14 10:39:37;;;;;;;;;3.00;3.00;;;;;28.06;27.01;101894.38;5069801;27;48835;-68
2022/05/14 10:42:25;;;;;;;;;3.67;3.67;;;;;28.40;26.29;101894.81;5071646;28;45218;-68
2022/05/14 10:44:59;;;;;;;;;5.00;3.00;;;;;28.57;26.05;101884.59;5066292;27;45241;-68
2022/05/14 10:47:26;;;;;;;;;4.00;3.00;;;;;28.61;25.77;101881.13;5078883;28;45412;-68
2022/05/14 10:50:04;;;;;;;;;3.33;3.33;;;;;28.47;25.57;101879.63;5093935;27;47336;-68
2022/05/14 10:52:30;;;;;;;;;4.00;3.00;;;;;28.57;25.55;101884.59;5077469;28;45427;-68
2022/05/14 10:54:57;;;;;;;;;3.00;3.00;;;;;28.69;25.60;101882.72;5074345;28;45559;-68
2022/05/14 10:57:30;;;;;;;;;3.67;3.67;;;;;28.82;25.35;101876.06;5078055;28;45408;-68
2022/05/14 11:00:14;;;;;;;;;4.00;4.00;;;;;28.89;25.47;101888.84;5073091;28;48085;-68
2022/05/14 11:02:52;;;;;;;;;7.33;6.00;;;;;28.93;24.72;101878.84;5080397;28;45396;-68
2022/05/14 11:05:47;;;;;;;;;5.33;3.33;;;;;28.93;24.99;101884.44;5082652;28;45196;-68
2022/05/14 11:08:26;;;;;;;;;5.00;5.00;;;;;28.98;24.94;101886.53;5083203;27;45229;-68
2022/05/14 11:11:05;;;;;;;;;3.67;3.67;;;;;28.95;25.15;101882.25;5067299;28;47614;-68
2022/05/14 11:13:31;;;;;;;;;4.67;4.67;;;;;28.07;25.10;101879.34;5072438;28;45465;-70
2022/05/14 11:16:03;;;;;;;;;3.67;3.67;;;;;27.71;25.66;101876.59;5079150;28;45553;-68
2022/05/14 11:18:28;;;;;;;;;4.00;4.00;;;;;28.16;26.02;101882.69;5075436;27;45575;-68
2022/05/14 11:21:05;;;;;;;;;4.00;4.00;;;;;28.72;24.62;101864.56;5064944;28;46179;-68
2022/05/14 11:23:30;;;;;;;;;6.00;4.33;;;;;28.76;24.33;101868.63;5072552;27;45447;-68
2022/05/14 11:26:13;;;;;;;;;3.33;3.33;;;;;28.93;24.81;101850.88;5066097;28;45482;-68
2022/05/14 11:28:38;;;;;;;;;4.33;4.33;;;;;29.28;24.71;101858.41;5077707;28;45257;-68
2022/05/14 11:31:16;;;;;;;;;5.00;5.00;;;;;29.22;23.11;101854.66;5065441;28;48500;-68
2022/05/14 11:33:43;;;;;;;;;5.67;4.33;;;;;29.55;23.78;101847.53;5072643;28;45724;-68
2022/05/14 11:36:11;;;;;;;;;6.00;6.00;;;;;29.73;23.13;101856.59;5075725;28;45218;-68
2022/05/14 11:38:40;;;;;;;;;5.00;4.00;;;;;28.96;23.96;101839.19;5078943;27;45270;-68
2022/05/14 11:41:06;;;;;;;;;5.00;5.00;;;;;29.47;24.20;101851.56;5066256;28;46151;-68
2022/05/14 11:43:38;;;;;;;;;4.00;4.00;;;;;29.49;23.55;101840.13;5082677;27;45367;-68
2022/05/14 11:46:14;;;;;;;;;3.33;3.33;;;;;29.87;23.63;101839.53;5070458;27;45273;-68
2022/05/14 11:49:22;;;;;;;;;4.67;3.00;;;;;29.87;23.22;101843.19;5081927;27;45489;-69